Time;durP1;ratioP1;P1;durP2;ratioP2;P2;SDS_P1;SDS_P2;PMS_P1;PMS_P2;Temp;Humidity;BMP_temperature;BMP_pressure;BME280_temperature;BME280_humidity;BME280_pressure;Samples;Min_cycle;Max_cycle;Signal;HPM_P1;HPM_P2
2022/08/20 00:00:45;;;;;;;6.55;2.00;;;;;;;22.17;85.03;100019.28;4879762;29;20057;-75
2022/08/20 00:03:20;;;;;;;4.18;1.73;;;;;;;22.15;85.36;100020.41;4897049;29;20126;-75
2022/08/20 00:05:51;;;;;;;3.80;1.95;;;;;;;22.16;85.64;100016.72;4879622;29;20035;-75
2022/08/20 00:08:17;;;;;;;4.78;2.25;;;;;;;22.17;85.60;100019.28;4895546;29;20040;-75
2022/08/20 00:10:45;;;;;;;5.80;1.92;;;;;;;22.17;85.60;100013.88;4878015;29;20033;-74
2022/08/20 00:13:14;;;;;;;3.35;1.77;;;;;;;22.18;85.49;100021.03;4895302;29;20516;-74
2022/08/20 00:15:40;;;;;;;5.05;1.83;;;;;;;22.13;85.73;100006.13;4894385;29;20043;-74
2022/08/20 00:18:06;;;;;;;6.03;1.92;;;;;;;22.26;85.69;100017.69;4877857;29;20028;-74
2022/08/20 00:20:37;;;;;;;4.22;2.10;;;;;;;22.25;85.66;100015.97;4896638;29;20052;-74
2022/08/20 00:23:04;;;;;;;5.20;1.88;;;;;;;22.31;85.46;100020.03;4898718;29;20473;-74
2022/08/20 00:25:29;;;;;;;4.03;1.92;;;;;;;22.31;85.60;100020.91;4896630;29;20551;-75
2022/08/20 00:27:56;;;;;;;4.93;2.53;;;;;;;22.32;86.23;100022.66;4896447;29;20024;-75
2022/08/20 00:30:23;;;;;;;6.20;3.00;;;;;;;22.35;86.33;100026.94;4897529;29;20040;-74
2022/08/20 00:32:52;;;;;;;5.43;2.85;;;;;;;22.35;86.09;100026.94;4896438;29;20084;-75
2022/08/20 00:35:20;;;;;;;7.63;4.00;;;;;;;22.36;86.39;100023.22;4879463;29;20043;-74
2022/08/20 00:37:45;;;;;;;5.57;3.13;;;;;;;22.34;86.21;100015.22;4896497;29;20032;-75
2022/08/20 00:40:13;;;;;;;7.88;3.95;;;;;;;22.36;86.54;100023.22;4896017;29;20491;-75
2022/08/20 00:42:45;;;;;;;8.73;3.70;;;;;;;22.33;87.18;100024.34;4879321;29;20024;-75
2022/08/20 00:45:10;;;;;;;6.28;3.28;;;;;;;22.25;87.13;100015.13;4895934;29;20025;-74
2022/08/20 00:47:39;;;;;;;5.60;3.35;;;;;;;22.26;87.75;100023.13;4894469;29;20040;-75
2022/08/20 00:50:06;;;;;;;9.15;3.72;;;;;;;22.21;87.96;100025.31;4895827;29;20033;-75
2022/08/20 00:52:32;;;;;;;7.10;4.40;;;;;;;22.21;88.02;100025.31;4895654;29;20041;-75
2022/08/20 00:55:00;;;;;;;7.35;3.72;;;;;;;22.28;87.74;100032.00;4895905;29;20048;-74
2022/08/20 00:57:33;;;;;;;6.22;3.83;;;;;;;22.29;87.55;100028.28;4896045;29;20515;-74
2022/08/20 01:00:01;;;;;;;7.95;3.83;;;;;;;22.31;87.95;100029.03;4895828;29;20466;-75
2022/08/20 01:02:30;;;;;;;12.35;4.30;;;;;;;22.27;88.17;100027.56;4896018;29;20044;-74
2022/08/20 01:04:56;;;;;;;8.23;4.65;;;;;;;22.21;87.99;100017.19;4896156;29;20048;-75
2022/08/20 01:07:31;;;;;;;7.95;4.07;;;;;;;22.27;88.56;100035.69;4895820;29;20025;-75
2022/08/20 01:09:57;;;;;;;7.88;3.90;;;;;;;22.25;88.66;100043.09;4895904;29;20115;-75
2022/08/20 01:12:24;;;;;;;7.20;4.28;;;;;;;22.26;88.55;100050.22;4895699;29;20029;-75
2022/08/20 01:14:50;;;;;;;7.95;4.32;;;;;;;22.25;88.69;100048.50;4895845;29;20461;-75
2022/08/20 01:17:21;;;;;;;8.68;4.60;;;;;;;22.16;89.16;100032.97;4878974;29;20032;-75
2022/08/20 01:19:58;;;;;;;8.43;4.28;;;;;;;22.18;89.51;100047.25;4896221;29;20036;-75
2022/08/20 01:25:56;;;;;;;7.88;4.78;;;;;;;22.13;89.69;100044.06;4896063;29;20107;-75
2022/08/20 01:28:30;;;;;;;6.60;4.35;;;;;;;22.16;89.54;100046.50;4874422;29;20044;-74
2022/08/20 01:30:55;;;;;;;10.88;4.93;;;;;;;22.14;89.89;100041.22;4899565;29;20033;-75
2022/08/20 01:33:22;;;;;;;7.32;4.57;;;;;;;22.12;90.04;100048.59;4899634;29;20039;-75
2022/08/20 01:35:49;;;;;;;9.63;4.68;;;;;;;22.02;90.58;100041.34;4899377;29;20036;-74
2022/08/20 01:38:15;;;;;;;7.57;5.05;;;;;;;21.96;90.87;100042.69;4899529;29;20039;-74
2022/08/20 01:41:06;;;;;;;8.25;5.25;;;;;;;21.88;91.54;100049.66;4882428;29;20036;-74
2022/08/20 01:43:32;;;;;;;7.28;4.65;;;;;;;21.78;91.95;100037.84;4898912;29;20037;-74
2022/08/20 01:45:57;;;;;;;9.45;5.13;;;;;;;21.75;92.17;100044.34;4897999;29;20028;-74
2022/08/20 01:48:23;;;;;;;8.30;4.90;;;;;;;21.74;92.29;100052.56;4898383;29;20024;-74
2022/08/20 01:51:00;;;;;;;9.25;5.18;;;;;;;21.71;92.12;100047.41;4898353;29;20036;-74
2022/08/20 01:53:34;;;;;;;7.15;4.72;;;;;;;21.69;92.74;100060.19;4881488;29;20036;-74
2022/08/20 01:56:07;;;;;;;9.80;5.85;;;;;;;21.65;93.57;100058.69;4898235;29;20056;-74
2022/08/20 01:58:34;;;;;;;9.95;5.30;;;;;;;21.62;93.23;100061.63;4881501;29;20039;-74
2022/08/20 02:01:00;;;;;;;8.55;5.38;;;;;;;21.48;94.02;100053.72;4898664;29;20382;-74
2022/08/20 02:03:25;;;;;;;8.98;5.53;;;;;;;21.40;95.02;100058.88;4899014;29;20043;-74
2022/08/20 02:05:52;;;;;;;9.98;5.97;;;;;;;21.40;95.19;100065.13;4882055;29;20032;-75
2022/08/20 02:08:20;;;;;;;7.97;5.10;;;;;;;21.29;95.97;100062.38;4882237;29;20131;-74
2022/08/20 02:10:45;;;;;;;8.85;4.82;;;;;;;21.40;95.46;100067.00;4881839;29;20088;-74
2022/08/20 02:13:12;;;;;;;8.80;4.53;;;;;;;21.41;95.33;100071.41;4900990;29;20131;-74
2022/08/20 02:15:38;;;;;;;7.07;4.53;;;;;;;21.38;95.69;100069.81;4898841;29;20039;-75
2022/08/20 02:18:15;;;;;;;8.52;4.90;;;;;;;21.43;96.00;100075.72;4898991;29;20478;-75
2022/08/20 02:20:42;;;;;;;8.88;5.35;;;;;;;21.30;96.94;100079.47;4881820;29;20030;-74
2022/08/20 02:23:08;;;;;;;9.35;5.60;;;;;;;21.26;96.94;100075.28;4913620;29;20404;-74
2022/08/20 02:25:37;;;;;;;8.43;4.72;;;;;;;21.32;97.41;100091.03;4911013;29;20063;-74
2022/08/20 02:28:06;;;;;;;9.30;5.57;;;;;;;21.34;96.98;100081.84;4916061;29;20040;-74
2022/08/20 02:30:36;;;;;;;8.07;5.22;;;;;;;21.28;97.20;100081.44;4916666;29;20119;-74
2022/08/20 02:33:06;;;;;;;7.90;4.78;;;;;;;21.36;96.62;100084.44;4882551;29;20048;-74
2022/08/20 02:35:32;;;;;;;7.68;4.45;;;;;;;21.35;96.62;100088.97;4897936;29;20040;-72
2022/08/20 02:37:58;;;;;;;8.75;4.40;;;;;;;21.38;96.45;100077.06;4897169;29;20036;-72
2022/08/20 02:40:26;;;;;;;8.02;4.18;;;;;;;21.37;96.25;100069.91;4897500;29;20397;-72
2022/08/20 02:42:52;;;;;;;8.50;4.80;;;;;;;21.32;96.28;100061.25;4897917;29;20033;-72
2022/08/20 02:45:21;;;;;;;8.57;4.32;;;;;;;21.38;95.75;100075.22;4881422;29;20079;-74
2022/08/20 02:47:47;;;;;;;8.80;4.30;;;;;;;21.38;96.03;100067.09;4898158;29;20485;-73
2022/08/20 02:50:16;;;;;;;7.00;4.30;;;;;;;21.35;96.12;100067.31;4898097;29;20040;-73
2022/08/20 02:52:42;;;;;;;8.27;3.88;;;;;;;21.26;96.11;100056.31;4880854;29;20040;-74
2022/08/20 02:55:09;;;;;;;9.90;4.38;;;;;;;21.28;96.36;100052.53;4898099;29;20116;-74
2022/08/20 02:57:35;;;;;;;6.85;4.20;;;;;;;21.34;96.27;100075.56;4881171;29;20819;-74
2022/08/20 03:00:00;;;;;;;8.48;5.18;;;;;;;21.32;96.10;100066.69;4897836;29;21083;-73
2022/08/20 03:02:26;;;;;;;7.55;4.55;;;;;;;21.30;96.53;100064.09;4898038;29;20067;-73
2022/08/20 03:04:52;;;;;;;9.73;5.03;;;;;;;21.22;96.45;100052.16;4898076;29;20025;-73
2022/08/20 03:07:17;;;;;;;7.88;4.57;;;;;;;21.11;96.72;100043.94;4897658;29;20021;-74
2022/08/20 03:09:43;;;;;;;9.65;4.97;;;;;;;21.17;97.27;100057.03;4897974;29;20059;-74
2022/08/20 03:12:08;;;;;;;8.60;4.80;;;;;;;21.06;97.23;100052.41;4880688;29;20021;-74
2022/08/20 03:14:34;;;;;;;14.32;5.22;;;;;;;21.06;97.95;100059.66;4897888;29;20552;-74
2022/08/20 03:17:00;;;;;;;8.68;4.65;;;;;;;21.02;97.69;100052.78;4897625;29;20032;-74
2022/08/20 03:19:26;;;;;;;9.45;5.05;;;;;;;20.94;97.81;100050.59;4880971;29;20449;-74
2022/08/20 03:21:52;;;;;;;9.82;5.10;;;;;;;20.94;98.48;100059.56;4897417;29;20388;-74
2022/08/20 03:24:18;;;;;;;23.80;6.50;;;;;;;20.88;98.63;100057.34;4897605;29;20028;-74
2022/08/20 03:26:44;;;;;;;8.77;5.38;;;;;;;20.86;99.06;100059.28;4880823;29;20505;-74
2022/08/20 03:29:10;;;;;;;9.05;4.75;;;;;;;20.89;99.05;100067.16;4897602;29;20037;-74
2022/08/20 03:31:36;;;;;;;12.55;5.13;;;;;;;20.85;99.34;100052.16;4897365;29;20055;-74
2022/08/20 03:34:02;;;;;;;13.18;5.25;;;;;;;20.89;99.56;100059.06;4897432;29;20072;-75
2022/08/20 03:36:28;;;;;;;10.27;5.57;;;;;;;20.92;99.30;100053.41;4897163;29;20048;-74
2022/08/20 03:38:59;;;;;;;9.45;5.22;;;;;;;21.00;99.44;100054.72;4897384;29;20037;-74
2022/08/20 03:41:25;;;;;;;11.70;5.63;;;;;;;21.07;99.22;100056.00;4897241;29;20108;-74
2022/08/20 03:43:51;;;;;;;9.50;5.90;;;;;;;21.06;99.45;100065.06;4897260;29;20108;-74
2022/08/20 03:46:17;;;;;;;8.88;4.88;;;;;;;21.00;99.45;100042.06;4897235;29;20048;-75
2022/08/20 03:48:42;;;;;;;8.70;4.80;;;;;;;21.09;99.02;100054.06;4897207;29;20397;-74
2022/08/20 03:51:08;;;;;;;7.78;4.60;;;;;;;21.10;99.18;100055.75;4896173;29;20036;-74
2022/08/20 03:53:34;;;;;;;7.97;4.82;;;;;;;21.13;99.34;100061.81;4897020;29;20029;-74
2022/08/20 03:56:03;;;;;;;9.13;5.13;;;;;;;21.16;98.56;100060.69;4897200;29;20039;-75
2022/08/20 03:58:32;;;;;;;8.48;5.07;;;;;;;21.16;98.37;100060.69;4897163;29;20462;-75
2022/08/20 04:00:57;;;;;;;11.35;5.18;;;;;;;21.17;98.76;100062.44;4896726;29;20049;-74
2022/08/20 04:03:23;;;;;;;13.70;4.80;;;;;;;21.13;98.68;100055.53;4897041;29;20029;-75
2022/08/20 04:05:49;;;;;;;15.27;5.60;;;;;;;21.17;98.50;100065.16;4896747;29;20036;-74
2022/08/20 04:08:22;;;;;;;8.73;5.05;;;;;;;21.15;98.88;100059.88;4896833;29;20468;-74
2022/08/20 04:10:48;;;;;;;7.22;4.88;;;;;;;21.15;99.03;100067.09;4897194;29;20065;-75
2022/08/20 04:13:15;;;;;;;21.05;6.30;;;;;;;21.13;98.94;100071.75;4896824;29;20194;-74
2022/08/20 04:15:41;;;;;;;7.80;5.18;;;;;;;21.11;99.23;100069.16;4896699;29;20056;-74
2022/08/20 04:18:09;;;;;;;9.02;5.00;;;;;;;21.11;99.15;100084.53;4895814;29;20072;-73
2022/08/20 04:20:36;;;;;;;9.05;4.70;;;;;;;21.12;99.77;100081.72;4898880;29;20028;-73
2022/08/20 04:23:02;;;;;;;9.65;5.30;;;;;;;21.17;99.56;100081.38;4896430;29;20724;-73
2022/08/20 04:25:30;;;;;;;7.65;5.07;;;;;;;21.15;99.11;100076.09;4896472;29;20477;-73
2022/08/20 04:27:57;;;;;;;8.05;4.43;;;;;;;21.18;98.95;100089.38;4898985;29;20103;-73
2022/08/20 04:30:24;;;;;;;9.63;5.95;;;;;;;21.19;99.43;100085.69;4879853;29;20036;-73
2022/08/20 04:32:50;;;;;;;11.02;6.00;;;;;;;21.18;99.33;100080.41;4896183;29;20033;-73
2022/08/20 04:35:17;;;;;;;10.50;5.35;;;;;;;21.23;98.81;100079.09;4896391;29;20029;-73
2022/08/20 04:37:44;;;;;;;8.07;4.78;;;;;;;21.26;98.81;100078.84;4896226;29;20044;-73
2022/08/20 04:43:03;;;;;;;9.75;6.13;;;;;;;21.38;98.21;100096.00;4896338;29;20040;-73
2022/08/20 04:45:30;;;;;;;8.65;5.60;;;;;;;21.39;98.76;100095.00;4879426;29;20028;-74
2022/08/20 04:47:55;;;;;;;9.77;6.15;;;;;;;21.36;98.36;100095.25;4896308;29;20044;-74
2022/08/20 04:50:21;;;;;;;9.40;5.25;;;;;;;21.39;98.50;100095.00;4896176;29;20037;-73
2022/08/20 04:52:48;;;;;;;11.45;6.10;;;;;;;21.28;99.30;100086.84;4895957;29;20028;-73
2022/08/20 04:55:16;;;;;;;9.93;5.43;;;;;;;21.30;99.54;100095.72;4895948;29;20485;-73
2022/08/20 04:57:42;;;;;;;12.93;5.93;;;;;;;21.25;99.04;100081.66;4895987;29;20793;-74
2022/08/20 05:00:12;;;;;;;9.77;5.97;;;;;;;21.40;98.97;100088.63;4878932;29;20087;-74
2022/08/20 05:02:38;;;;;;;9.75;5.70;;;;;;;21.37;99.48;100081.59;4896002;29;20036;-74
2022/08/20 05:05:07;;;;;;;11.80;5.93;;;;;;;21.46;98.81;100085.47;4895947;29;20024;-73
2022/08/20 05:07:39;;;;;;;15.13;5.78;;;;;;;21.49;99.04;100090.63;4896379;29;20029;-73
2022/08/20 05:10:05;;;;;;;9.43;5.43;;;;;;;21.56;98.39;100102.72;4896000;29;20040;-73
2022/08/20 05:12:30;;;;;;;9.85;5.60;;;;;;;21.63;98.32;100109.41;4895258;29;20028;-74
2022/08/20 05:14:56;;;;;;;8.82;5.97;;;;;;;21.68;98.01;100107.22;4878105;29;20565;-74
2022/08/20 05:17:22;;;;;;;10.88;5.75;;;;;;;21.73;97.63;100105.84;4895308;29;20077;-74
2022/08/20 05:19:50;;;;;;;11.80;5.03;;;;;;;21.79;97.20;100112.69;4895180;29;20126;-74
2022/08/20 05:22:17;;;;;;;13.50;6.93;;;;;;;21.84;97.39;100115.91;4895244;29;20481;-74
2022/08/20 05:24:42;;;;;;;8.38;5.35;;;;;;;21.82;97.32;100099.78;4894995;29;20035;-73
2022/08/20 05:27:08;;;;;;;8.82;5.43;;;;;;;21.92;97.04;100110.75;4878795;29;20028;-73
2022/08/20 05:29:33;;;;;;;11.93;5.65;;;;;;;21.92;97.26;100099.94;4895710;29;20041;-74
2022/08/20 05:31:59;;;;;;;7.10;4.65;;;;;;;22.06;96.68;100114.13;4895861;29;20041;-74
2022/08/20 05:34:24;;;;;;;8.73;5.47;;;;;;;22.16;96.18;100107.00;4878768;29;20401;-74
2022/08/20 05:36:51;;;;;;;9.73;5.95;;;;;;;22.27;95.56;100114.28;4895851;29;20115;-73
2022/08/20 05:39:20;;;;;;;10.48;5.78;;;;;;;22.30;94.42;100108.63;4895634;29;20028;-74
2022/08/20 05:41:48;;;;;;;11.20;5.85;;;;;;;22.44;94.15;100115.66;4895907;29;20128;-74
2022/08/20 05:44:14;;;;;;;9.07;4.68;;;;;;;22.56;93.99;100117.41;4895572;29;20032;-74
2022/08/20 05:46:42;;;;;;;7.95;4.20;;;;;;;22.63;92.84;100113.22;4878418;29;20055;-74
2022/08/20 05:49:09;;;;;;;5.65;3.95;;;;;;;22.67;92.79;100122.84;4894442;29;20017;-73
2022/08/20 05:51:35;;;;;;;8.85;4.00;;;;;;;22.72;91.95;100118.78;4894466;29;20044;-74
2022/08/20 05:54:02;;;;;;;6.25;4.05;;;;;;;22.75;91.54;100117.69;4894277;29;20052;-73
2022/08/20 05:56:31;;;;;;;8.38;3.80;;;;;;;22.76;91.73;100127.53;4877532;29;20032;-74
2022/08/20 05:59:03;;;;;;;5.00;2.92;;;;;;;22.75;91.55;100128.53;4894667;29;20029;-74
2022/08/20 06:01:30;;;;;;;5.25;2.70;;;;;;;22.71;91.53;100114.34;4878699;29;20106;-74
2022/08/20 06:06:39;;;;;;;6.60;3.05;;;;;;;22.83;89.94;100113.34;4895921;29;20099;-74
2022/08/20 06:09:06;;;;;;;4.75;2.15;;;;;;;22.96;89.88;100126.78;4879039;29;20462;-74
2022/08/20 06:11:32;;;;;;;5.85;2.50;;;;;;;23.08;89.61;100137.47;4895518;29;20151;-74
2022/08/20 06:13:58;;;;;;;3.28;2.10;;;;;;;23.19;88.94;100134.75;4897838;29;20028;-74
2022/08/20 06:16:23;;;;;;;5.15;2.08;;;;;;;23.34;87.85;100122.66;4899029;29;20028;-74
2022/08/20 06:18:49;;;;;;;6.03;2.53;;;;;;;23.53;86.56;100137.41;4899919;29;20107;-74
2022/08/20 06:21:14;;;;;;;3.97;2.10;;;;;;;23.50;86.66;100129.50;4901253;29;20024;-74
2022/08/20 06:23:41;;;;;;;4.85;2.00;;;;;;;23.52;86.47;100136.56;4898410;29;20024;-74
2022/08/20 06:26:08;;;;;;;4.93;2.15;;;;;;;23.57;86.49;100133.44;4898471;29;20131;-74
2022/08/20 06:28:33;;;;;;;5.20;2.03;;;;;;;23.44;85.75;100134.47;4901346;29;20024;-74
2022/08/20 06:30:59;;;;;;;3.22;1.65;;;;;;;23.43;86.38;100132.75;4899639;29;20096;-74
2022/08/20 06:33:24;;;;;;;4.57;2.00;;;;;;;23.41;86.61;100140.16;4898938;29;20422;-74
2022/08/20 06:35:50;;;;;;;4.28;1.70;;;;;;;23.37;87.04;100138.69;4898787;29;20047;-74
2022/08/20 06:38:15;;;;;;;3.95;1.60;;;;;;;23.37;87.33;100149.56;4898653;29;20104;-74
2022/08/20 06:40:41;;;;;;;3.08;1.50;;;;;;;23.13;86.99;100124.41;4898527;29;20036;-74
2022/08/20 06:43:08;;;;;;;3.17;1.42;;;;;;;23.07;88.19;100141.19;4898707;29;20438;-74
2022/08/20 06:45:34;;;;;;;3.65;1.50;;;;;;;23.04;88.61;100149.59;4898511;29;20028;-74
2022/08/20 06:48:05;;;;;;;2.13;1.10;;;;;;;23.00;89.40;100141.81;4897657;29;20024;-75
2022/08/20 06:50:38;;;;;;;3.55;1.45;;;;;;;23.00;89.50;100150.81;4897103;29;20035;-74
2022/08/20 06:53:08;;;;;;;3.47;1.20;;;;;;;23.03;90.18;100142.41;4897422;29;20108;-74
2022/08/20 06:55:36;;;;;;;2.50;1.20;;;;;;;23.10;89.87;100146.38;4896945;29;20028;-74
2022/08/20 06:58:07;;;;;;;2.55;1.42;;;;;;;23.14;90.12;100126.13;4880331;29;20036;-74
2022/08/20 07:00:34;;;;;;;2.40;1.23;;;;;;;23.33;88.74;100152.63;4896458;29;20112;-74
2022/08/20 07:03:01;;;;;;;2.75;1.35;;;;;;;23.32;87.13;100145.50;4897484;29;20032;-74
2022/08/20 07:05:28;;;;;;;2.88;1.17;;;;;;;23.35;86.77;100146.09;4897956;29;20389;-74
2022/08/20 07:07:54;;;;;;;3.08;1.35;;;;;;;23.36;86.21;100147.81;4897814;29;20605;-74
2022/08/20 07:10:23;;;;;;;4.32;1.67;;;;;;;23.36;87.06;100158.69;4897638;29;20058;-74
2022/08/20 07:12:49;;;;;;;4.60;1.67;;;;;;;23.36;87.11;100147.81;4897981;29;20036;-74
2022/08/20 07:15:17;;;;;;;2.28;1.20;;;;;;;23.50;86.51;100162.97;4897367;29;20024;-74
2022/08/20 07:17:51;;;;;;;2.47;1.25;;;;;;;23.40;86.50;100165.59;4897749;29;20033;-74
2022/08/20 07:20:16;;;;;;;2.80;1.35;;;;;;;23.35;86.33;100148.81;4897684;29;20031;-73
2022/08/20 07:22:42;;;;;;;2.90;1.20;;;;;;;23.40;85.67;100164.72;4882293;29;20025;-73
2022/08/20 07:25:11;;;;;;;2.38;1.08;;;;;;;23.20;86.43;100155.47;4904053;29;20787;-73
2022/08/20 07:27:37;;;;;;;2.83;1.25;;;;;;;23.28;86.72;100168.44;4880431;29;20052;-74
2022/08/20 07:32:50;;;;;;;1.55;0.90;;;;;;;23.31;87.44;100155.47;4888285;29;20040;-73
2022/08/20 07:35:17;;;;;;;1.98;1.35;;;;;;;23.47;87.13;100163.22;4883953;29;20037;-74
2022/08/20 07:37:47;;;;;;;2.80;1.10;;;;;;;23.55;84.84;100168.88;4878927;29;20116;-72
2022/08/20 07:40:19;;;;;;;3.08;1.25;;;;;;;23.63;85.18;100176.38;4881913;29;20029;-73
2022/08/20 07:42:44;;;;;;;4.72;1.08;;;;;;;23.67;85.87;100173.31;4894967;29;20036;-71
2022/08/20 07:45:12;;;;;;;3.15;1.17;;;;;;;23.77;85.55;100178.81;4880301;29;20028;-71
2022/08/20 07:47:40;;;;;;;3.28;1.10;;;;;;;23.85;85.14;100179.03;4897041;29;20378;-71
2022/08/20 07:50:07;;;;;;;2.05;0.93;;;;;;;23.92;84.79;100174.81;4896734;29;20115;-71
2022/08/20 07:52:34;;;;;;;4.93;1.02;;;;;;;24.00;84.44;100180.47;4896765;29;20033;-71
2022/08/20 07:55:08;;;;;;;1.65;0.90;;;;;;;24.17;83.42;100177.16;4896944;29;20485;-71
2022/08/20 07:57:34;;;;;;;1.92;0.98;;;;;;;24.27;82.71;100178.09;4879499;29;20101;-71
2022/08/20 08:00:00;;;;;;;2.13;1.00;;;;;;;24.35;82.84;100181.88;4895538;29;20560;-71
2022/08/20 08:02:26;;;;;;;0.93;0.70;;;;;;;24.46;82.43;100179.09;4895905;29;20029;-71
2022/08/20 08:04:52;;;;;;;1.35;0.88;;;;;;;24.52;81.54;100181.28;4895678;29;20040;-71
2022/08/20 08:07:18;;;;;;;1.75;0.95;;;;;;;24.57;80.81;100180.88;4895124;29;20031;-71
2022/08/20 08:09:45;;;;;;;1.73;0.88;;;;;;;24.60;80.38;100186.91;4895282;29;20032;-71
2022/08/20 08:12:12;;;;;;;2.35;0.85;;;;;;;24.59;80.51;100190.66;4878562;29;20036;-71
2022/08/20 08:14:40;;;;;;;1.67;0.85;;;;;;;24.54;80.76;100187.47;4895833;29;20048;-72
2022/08/20 08:17:06;;;;;;;2.28;1.17;;;;;;;24.53;81.15;100198.44;4878266;29;20036;-72
2022/08/20 08:19:37;;;;;;;3.72;1.48;;;;;;;24.36;81.25;100185.47;4897011;29;20095;-71
2022/08/20 08:22:05;;;;;;;2.60;1.10;;;;;;;24.39;81.39;100198.81;4881181;29;20029;-72
2022/08/20 08:24:31;;;;;;;2.40;1.45;;;;;;;24.33;81.53;100192.03;4877839;29;20036;-72
2022/08/20 08:26:56;;;;;;;2.60;1.58;;;;;;;24.20;82.02;100198.69;4877595;29;20482;-71
2022/08/20 08:29:22;;;;;;;3.22;1.90;;;;;;;24.28;82.82;100191.56;4877323;29;20104;-71
2022/08/20 08:31:47;;;;;;;3.08;1.60;;;;;;;24.42;82.84;100198.53;4895237;29;20037;-71
2022/08/20 08:34:13;;;;;;;3.25;1.40;;;;;;;24.56;82.86;100198.22;4895912;29;20029;-71
2022/08/20 08:36:39;;;;;;;2.75;1.50;;;;;;;24.74;81.70;100203.91;4911030;29;20028;-71
2022/08/20 08:39:05;;;;;;;2.03;1.30;;;;;;;24.89;81.24;100208.00;4913799;29;20032;-71
2022/08/20 08:41:38;;;;;;;3.35;1.45;;;;;;;25.20;80.61;100201.56;4913171;29;20419;-71
2022/08/20 08:44:15;;;;;;;2.95;1.30;;;;;;;25.80;77.90;100194.13;4913199;29;20737;-71
2022/08/20 08:46:43;;;;;;;4.25;1.60;;;;;;;26.32;74.31;100189.28;4899660;29;20055;-71
2022/08/20 08:49:19;;;;;;;2.28;1.20;;;;;;;26.63;73.05;100196.25;4893399;29;20032;-71
2022/08/20 08:51:49;;;;;;;3.40;1.55;;;;;;;26.88;72.07;100191.06;4893584;29;20036;-71
2022/08/20 08:54:20;;;;;;;2.75;1.10;;;;;;;27.26;68.99;100200.97;4893913;29;20040;-70
2022/08/20 08:56:46;;;;;;;1.98;1.30;;;;;;;27.45;67.38;100200.88;4878385;29;20163;-71
2022/08/20 08:59:11;;;;;;;2.22;1.00;;;;;;;27.26;67.03;100205.56;4895157;29;20171;-70
2022/08/20 09:01:44;;;;;;;2.45;1.20;;;;;;;26.98;67.66;100196.50;4895319;29;20064;-71
2022/08/20 09:04:11;;;;;;;2.88;1.27;;;;;;;27.12;68.40;100198.72;4879017;29;20040;-71
2022/08/20 09:06:39;;;;;;;2.50;1.30;;;;;;;27.19;67.55;100197.09;4895741;29;20028;-70
2022/08/20 09:09:06;;;;;;;1.52;1.00;;;;;;;27.22;68.10;100202.25;4895624;29;20036;-70
2022/08/20 09:11:45;;;;;;;2.92;1.05;;;;;;;27.36;66.85;100199.09;4895614;29;20529;-70
2022/08/20 09:14:10;;;;;;;1.90;1.35;;;;;;;27.40;66.16;100200.47;4895676;29;20588;-70
2022/08/20 09:16:36;;;;;;;1.88;1.15;;;;;;;27.34;66.53;100198.38;4885335;29;20033;-71
2022/08/20 09:19:03;;;;;;;2.95;1.52;;;;;;;26.97;66.39;100200.22;4877237;29;20056;-70
2022/08/20 09:21:28;;;;;;;1.95;1.30;;;;;;;26.96;66.86;100198.50;4890527;29;20047;-70
2022/08/20 09:23:53;;;;;;;2.60;1.38;;;;;;;26.82;66.34;100201.72;4895715;29;20029;-70
2022/08/20 09:26:19;;;;;;;2.55;1.45;;;;;;;26.94;65.42;100200.50;4895803;29;20677;-70
2022/08/20 09:28:44;;;;;;;2.50;1.30;;;;;;;27.13;63.19;100201.28;4895616;29;20029;-70
2022/08/20 09:31:10;;;;;;;1.45;1.00;;;;;;;27.25;60.60;100193.75;4895706;29;20036;-70
2022/08/20 09:33:35;;;;;;;2.92;1.10;;;;;;;27.62;61.63;100197.34;4895609;29;20032;-70
2022/08/20 09:36:01;;;;;;;1.50;1.10;;;;;;;27.90;59.74;100199.06;4895319;29;20100;-70
2022/08/20 09:38:26;;;;;;;1.48;1.10;;;;;;;28.12;59.89;100206.78;4878765;29;20032;-70
2022/08/20 09:40:52;;;;;;;1.80;1.00;;;;;;;28.08;55.67;100205.38;4896300;29;20088;-71
2022/08/20 09:43:17;;;;;;;2.25;1.20;;;;;;;28.01;54.33;100208.88;4862453;29;20057;-70
2022/08/20 09:45:42;;;;;;;3.03;1.20;;;;;;;27.92;56.04;100199.75;4882010;29;20037;-70
2022/08/20 09:48:08;;;;;;;2.92;1.00;;;;;;;27.75;55.71;100208.75;4896442;29;20036;-70
2022/08/20 09:50:35;;;;;;;1.50;1.17;;;;;;;27.86;57.21;100200.31;4898240;29;20103;-71
2022/08/20 09:53:03;;;;;;;2.85;1.98;;;;;;;27.92;55.29;100199.75;4881062;29;20159;-71
2022/08/20 09:55:41;;;;;;;2.25;1.50;;;;;;;27.93;57.85;100206.06;4894033;29;20116;-71
2022/08/20 09:58:32;;;;;;;1.70;1.02;;;;;;;27.90;57.01;100204.53;4890530;29;20034;-71
2022/08/20 10:01:02;;;;;;;2.40;1.30;;;;;;;27.85;57.78;100201.34;4882659;29;20059;-69
2022/08/20 10:03:27;;;;;;;4.15;1.33;;;;;;;27.82;57.11;100193.47;4898408;29;20106;-68
2022/08/20 10:05:53;;;;;;;2.58;1.33;;;;;;;27.97;58.25;100182.88;4898507;29;20513;-71
2022/08/20 10:08:18;;;;;;;1.75;1.05;;;;;;;28.25;57.23;100193.56;4881554;29;20144;-70
2022/08/20 10:10:43;;;;;;;2.08;1.30;;;;;;;28.58;56.74;100196.59;4897969;29;20504;-73
2022/08/20 10:13:09;;;;;;;1.70;1.05;;;;;;;29.32;55.48;100182.19;4897706;29;20070;-72
2022/08/20 10:15:34;;;;;;;2.53;1.10;;;;;;;30.25;51.36;100192.03;4866870;29;20124;-71
2022/08/20 10:18:04;;;;;;;1.77;0.98;;;;;;;30.56;48.51;100187.59;4879039;29;20088;-71
2022/08/20 10:20:30;;;;;;;3.63;1.13;;;;;;;30.58;48.88;100189.13;4877601;29;20058;-72
2022/08/20 10:22:55;;;;;;;1.30;0.70;;;;;;;30.85;49.20;100187.91;4897449;29;20820;-71
2022/08/20 10:25:21;;;;;;;1.67;1.15;;;;;;;30.67;48.58;100188.09;4880878;29;20025;-71
2022/08/20 10:27:46;;;;;;;1.80;0.90;;;;;;;30.37;48.39;100188.78;4898568;29;20033;-75
2022/08/20 10:30:12;;;;;;;1.30;0.70;;;;;;;30.40;48.84;100191.19;4895987;29;20473;-74
2022/08/20 10:32:38;;;;;;;1.40;0.80;;;;;;;30.63;49.94;100175.72;4888360;29;20431;-74
2022/08/20 10:35:03;;;;;;;2.90;0.63;;;;;;;31.21;47.43;100180.94;4898117;29;20481;-75
2022/08/20 10:37:29;;;;;;;1.95;0.77;;;;;;;30.71;46.75;100183.09;4880808;29;20020;-75
2022/08/20 10:39:55;;;;;;;1.23;0.60;;;;;;;30.08;49.52;100174.69;4908728;29;20032;-74
2022/08/20 10:42:21;;;;;;;1.90;0.50;;;;;;;29.24;50.90;100170.31;4895806;29;20041;-76
2022/08/20 10:44:46;;;;;;;0.85;0.57;;;;;;;28.64;52.31;100180.38;4889195;29;20382;-76
2022/08/20 10:47:31;;;;;;;2.85;0.55;;;;;;;28.37;53.25;100184.09;4896537;29;20028;-75
2022/08/20 10:49:59;;;;;;;0.75;0.50;;;;;;;29.00;54.42;100181.13;4898334;29;20032;-75
2022/08/20 10:52:26;;;;;;;1.10;0.52;;;;;;;30.02;50.15;100174.47;4898453;29;20033;-75
2022/08/20 10:54:52;;;;;;;0.45;0.30;;;;;;;30.65;47.78;100176.41;4898316;29;20551;-76
2022/08/20 10:57:24;;;;;;;0.73;0.40;;;;;;;30.10;49.07;100175.34;4898324;29;20028;-76
2022/08/20 10:59:51;;;;;;;0.70;0.50;;;;;;;29.91;50.91;100177.56;4897872;29;20027;-76
2022/08/20 11:02:18;;;;;;;0.40;0.30;;;;;;;29.87;50.51;100176.22;4893188;29;20027;-72
2022/08/20 11:04:44;;;;;;;0.70;0.40;;;;;;;30.75;48.41;100179.84;4892087;29;20477;-76
2022/08/20 11:07:29;;;;;;;0.68;0.45;;;;;;;31.52;46.84;100178.25;4889397;29;20036;-76
2022/08/20 11:09:55;;;;;;;0.52;0.40;;;;;;;32.33;44.65;100179.44;4879219;29;20088;-75
2022/08/20 11:12:20;;;;;;;0.50;0.40;;;;;;;32.40;43.72;100174.97;4862659;29;20067;-76
2022/08/20 11:14:47;;;;;;;3.72;0.40;;;;;;;32.61;43.22;100177.84;4882959;29;20052;-75
2022/08/20 11:17:17;;;;;;;0.70;0.40;;;;;;;32.61;44.08;100177.00;4879743;29;20779;-76
2022/08/20 11:19:43;;;;;;;0.55;0.40;;;;;;;32.14;43.77;100163.44;4889847;29;20482;-76
2022/08/20 11:22:10;;;;;;;1.02;0.20;;;;;;;31.96;44.42;100165.66;4890166;29;20116;-75
2022/08/20 11:24:36;;;;;;;0.20;0.20;;;;;;;31.30;43.66;100173.50;4886303;29;20119;-75
2022/08/20 11:27:04;;;;;;;0.50;0.20;;;;;;;31.18;44.77;100164.81;4889127;29;20475;-73
2022/08/20 11:29:29;;;;;;;0.20;0.20;;;;;;;31.75;44.83;100157.13;4894130;29;20119;-74
2022/08/20 11:31:55;;;;;;;0.35;0.20;;;;;;;32.30;43.11;100163.31;4887593;29;20109;-74
2022/08/20 11:34:21;;;;;;;0.25;0.20;;;;;;;33.09;42.01;100166.34;4896510;29;20044;-74
2022/08/20 11:36:47;;;;;;;2.47;0.30;;;;;;;32.80;41.68;100166.28;4892032;29;20029;-75